sensor_id;sensor_type;location;lat;lon;timestamp;temperature;humidity
9393;DHT22;4736;52.508;13.422;2022-11-04T00:01:05;9.10;1.00
9393;DHT22;4736;52.508;13.422;2022-11-04T00:04:12;9.10;1.00
9393;DHT22;4736;52.508;13.422;2022-11-04T00:07:15;9.10;1.00
9393;DHT22;4736;52.508;13.422;2022-11-04T00:10:36;9.10;1.00
9393;DHT22;4736;52.508;13.422;2022-11-04T00:14:22;9.10;1.00
9393;DHT22;4736;52.508;13.422;2022-11-04T00:17:25;9.10;1.00
9393;DHT22;4736;52.508;13.422;2022-11-04T00:20:27;9.10;1.00
9393;DHT22;4736;52.508;13.422;2022-11-04T00:23:48;9.10;1.00
9393;DHT22;4736;52.508;13.422;2022-11-04T00:27:09;9.10;1.00
9393;DHT22;4736;52.508;13.422;2022-11-04T00:30:31;9.10;1.00
9393;DHT22;4736;52.508;13.422;2022-11-04T00:33:34;9.10;1.00
9393;DHT22;4736;52.508;13.422;2022-11-04T00:36:49;9.10;1.00
9393;DHT22;4736;52.508;13.422;2022-11-04T00:39:52;9.10;1.00
9393;DHT22;4736;52.508;13.422;2022-11-04T00:42:54;9.10;1.00
9393;DHT22;4736;52.508;13.422;2022-11-04T00:45:59;9.10;1.00
9393;DHT22;4736;52.508;13.422;2022-11-04T00:49:01;9.10;1.00
9393;DHT22;4736;52.508;13.422;2022-11-04T00:52:04;9.10;1.00
9393;DHT22;4736;52.508;13.422;2022-11-04T00:55:07;9.00;1.00
9393;DHT22;4736;52.508;13.422;2022-11-04T00:58:11;9.00;1.00
9393;DHT22;4736;52.508;13.422;2022-11-04T01:01:15;9.00;1.00
9393;DHT22;4736;52.508;13.422;2022-11-04T01:04:19;9.00;1.00
9393;DHT22;4736;52.508;13.422;2022-11-04T01:07:22;8.90;1.00
9393;DHT22;4736;52.508;13.422;2022-11-04T01:10:24;8.90;1.00
9393;DHT22;4736;52.508;13.422;2022-11-04T01:13:27;8.80;1.00
9393;DHT22;4736;52.508;13.422;2022-11-04T01:16:35;8.90;1.00
9393;DHT22;4736;52.508;13.422;2022-11-04T01:19:38;8.80;1.00
9393;DHT22;4736;52.508;13.422;2022-11-04T01:22:41;8.80;1.00
9393;DHT22;4736;52.508;13.422;2022-11-04T01:25:44;8.80;1.00
9393;DHT22;4736;52.508;13.422;2022-11-04T01:28:47;8.80;1.00
9393;DHT22;4736;52.508;13.422;2022-11-04T01:31:51;8.70;1.00
9393;DHT22;4736;52.508;13.422;2022-11-04T01:34:56;8.70;1.00
9393;DHT22;4736;52.508;13.422;2022-11-04T01:37:59;8.60;1.00
9393;DHT22;4736;52.508;13.422;2022-11-04T01:41:03;8.70;1.00
9393;DHT22;4736;52.508;13.422;2022-11-04T01:47:51;8.70;1.00
9393;DHT22;4736;52.508;13.422;2022-11-04T01:51:05;8.70;1.00
9393;DHT22;4736;52.508;13.422;2022-11-04T01:54:10;8.70;1.00
9393;DHT22;4736;52.508;13.422;2022-11-04T01:57:17;8.70;1.00
9393;DHT22;4736;52.508;13.422;2022-11-04T02:00:20;8.70;1.00
9393;DHT22;4736;52.508;13.422;2022-11-04T02:03:28;8.70;1.00
9393;DHT22;4736;52.508;13.422;2022-11-04T02:06:31;8.70;1.00
9393;DHT22;4736;52.508;13.422;2022-11-04T02:09:36;8.70;1.00
9393;DHT22;4736;52.508;13.422;2022-11-04T02:12:39;8.70;1.00
9393;DHT22;4736;52.508;13.422;2022-11-04T02:15:54;8.70;1.00
9393;DHT22;4736;52.508;13.422;2022-11-04T02:19:07;8.70;1.00
9393;DHT22;4736;52.508;13.422;2022-11-04T02:22:36;8.70;1.00
9393;DHT22;4736;52.508;13.422;2022-11-04T02:26:03;8.70;1.00
9393;DHT22;4736;52.508;13.422;2022-11-04T02:29:33;8.70;1.00
9393;DHT22;4736;52.508;13.422;2022-11-04T02:33:03;8.70;1.00
9393;DHT22;4736;52.508;13.422;2022-11-04T02:36:13;8.70;1.00
9393;DHT22;4736;52.508;13.422;2022-11-04T02:39:21;8.70;1.00
9393;DHT22;4736;52.508;13.422;2022-11-04T02:42:33;8.90;1.00
9393;DHT22;4736;52.508;13.422;2022-11-04T02:45:43;8.70;1.00
9393;DHT22;4736;52.508;13.422;2022-11-04T02:48:52;8.70;1.00
9393;DHT22;4736;52.508;13.422;2022-11-04T02:52:00;8.60;1.00
9393;DHT22;4736;52.508;13.422;2022-11-04T02:55:10;8.60;1.00
9393;DHT22;4736;52.508;13.422;2022-11-04T02:58:18;8.60;1.00
9393;DHT22;4736;52.508;13.422;2022-11-04T03:01:28;8.60;1.00
9393;DHT22;4736;52.508;13.422;2022-11-04T03:04:37;8.60;1.00
9393;DHT22;4736;52.508;13.422;2022-11-04T03:07:43;8.60;1.00
9393;DHT22;4736;52.508;13.422;2022-11-04T03:10:51;8.60;1.00
9393;DHT22;4736;52.508;13.422;2022-11-04T03:13:58;8.60;1.00
9393;DHT22;4736;52.508;13.422;2022-11-04T03:17:09;8.70;1.00
9393;DHT22;4736;52.508;13.422;2022-11-04T03:20:19;8.70;1.00
9393;DHT22;4736;52.508;13.422;2022-11-04T03:23:23;8.80;1.00
9393;DHT22;4736;52.508;13.422;2022-11-04T03:26:28;8.70;1.00
9393;DHT22;4736;52.508;13.422;2022-11-04T03:29:36;8.70;1.00
9393;DHT22;4736;52.508;13.422;2022-11-04T03:32:46;8.70;1.00
9393;DHT22;4736;52.508;13.422;2022-11-04T03:35:54;8.80;1.00
9393;DHT22;4736;52.508;13.422;2022-11-04T03:38:57;8.80;1.00
9393;DHT22;4736;52.508;13.422;2022-11-04T03:42:04;8.80;1.00
9393;DHT22;4736;52.508;13.422;2022-11-04T03:45:22;8.70;1.00
9393;DHT22;4736;52.508;13.422;2022-11-04T03:48:33;8.80;1.00
9393;DHT22;4736;52.508;13.422;2022-11-04T03:51:36;8.80;1.00
9393;DHT22;4736;52.508;13.422;2022-11-04T03:54:39;8.80;1.00
9393;DHT22;4736;52.508;13.422;2022-11-04T03:57:49;8.80;1.00
9393;DHT22;4736;52.508;13.422;2022-11-04T04:00:59;8.80;1.00
9393;DHT22;4736;52.508;13.422;2022-11-04T04:04:12;8.80;1.00
9393;DHT22;4736;52.508;13.422;2022-11-04T04:07:20;8.80;1.00
9393;DHT22;4736;52.508;13.422;2022-11-04T04:10:34;9.00;1.00
9393;DHT22;4736;52.508;13.422;2022-11-04T04:13:56;8.80;1.00
9393;DHT22;4736;52.508;13.422;2022-11-04T04:17:04;8.80;1.00
9393;DHT22;4736;52.508;13.422;2022-11-04T04:20:18;8.80;1.00
9393;DHT22;4736;52.508;13.422;2022-11-04T04:23:26;8.80;1.00
9393;DHT22;4736;52.508;13.422;2022-11-04T04:26:47;8.80;1.00
9393;DHT22;4736;52.508;13.422;2022-11-04T04:30:11;8.80;1.00
9393;DHT22;4736;52.508;13.422;2022-11-04T04:33:17;8.90;1.00
9393;DHT22;4736;52.508;13.422;2022-11-04T04:36:25;8.80;1.00
9393;DHT22;4736;52.508;13.422;2022-11-04T04:39:39;8.90;1.00
9393;DHT22;4736;52.508;13.422;2022-11-04T04:43:13;8.90;1.00
9393;DHT22;4736;52.508;13.422;2022-11-04T04:46:35;8.90;1.00
9393;DHT22;4736;52.508;13.422;2022-11-04T04:49:48;8.90;1.00
9393;DHT22;4736;52.508;13.422;2022-11-04T04:52:54;9.00;1.00
9393;DHT22;4736;52.508;13.422;2022-11-04T04:55:58;9.00;1.00
9393;DHT22;4736;52.508;13.422;2022-11-04T04:59:01;9.00;1.00
9393;DHT22;4736;52.508;13.422;2022-11-04T05:02:03;9.00;1.00
9393;DHT22;4736;52.508;13.422;2022-11-04T05:05:07;9.00;1.00
9393;DHT22;4736;52.508;13.422;2022-11-04T05:08:11;9.00;1.00
9393;DHT22;4736;52.508;13.422;2022-11-04T05:11:14;9.10;1.00
9393;DHT22;4736;52.508;13.422;2022-11-04T05:14:19;9.10;1.00
9393;DHT22;4736;52.508;13.422;2022-11-04T05:17:22;9.10;1.00
9393;DHT22;4736;52.508;13.422;2022-11-04T05:20:25;9.10;1.00
9393;DHT22;4736;52.508;13.422;2022-11-04T05:23:30;9.10;1.00
9393;DHT22;4736;52.508;13.422;2022-11-04T05:26:37;9.10;1.00
9393;DHT22;4736;52.508;13.422;2022-11-04T05:29:41;9.10;1.00
9393;DHT22;4736;52.508;13.422;2022-11-04T05:32:44;9.10;1.00
9393;DHT22;4736;52.508;13.422;2022-11-04T05:35:47;9.10;1.00
9393;DHT22;4736;52.508;13.422;2022-11-04T05:38:52;9.10;1.00
9393;DHT22;4736;52.508;13.422;2022-11-04T05:41:56;9.20;1.00
9393;DHT22;4736;52.508;13.422;2022-11-04T05:44:59;9.20;1.00
9393;DHT22;4736;52.508;13.422;2022-11-04T05:48:03;9.20;1.00
9393;DHT22;4736;52.508;13.422;2022-11-04T05:51:11;9.20;1.00
9393;DHT22;4736;52.508;13.422;2022-11-04T05:54:16;9.20;1.00
9393;DHT22;4736;52.508;13.422;2022-11-04T05:57:18;9.20;1.00
9393;DHT22;4736;52.508;13.422;2022-11-04T06:00:21;9.30;1.00
9393;DHT22;4736;52.508;13.422;2022-11-04T06:03:24;9.20;1.00
9393;DHT22;4736;52.508;13.422;2022-11-04T06:06:30;9.30;1.00
9393;DHT22;4736;52.508;13.422;2022-11-04T06:09:34;9.20;1.00
9393;DHT22;4736;52.508;13.422;2022-11-04T06:12:40;9.20;1.00
9393;DHT22;4736;52.508;13.422;2022-11-04T06:15:43;9.20;1.00
9393;DHT22;4736;52.508;13.422;2022-11-04T06:18:46;9.20;1.00
9393;DHT22;4736;52.508;13.422;2022-11-04T06:21:49;9.20;1.00
9393;DHT22;4736;52.508;13.422;2022-11-04T06:24:53;9.20;1.00
9393;DHT22;4736;52.508;13.422;2022-11-04T06:27:55;9.30;1.00
9393;DHT22;4736;52.508;13.422;2022-11-04T06:30:59;9.30;1.00
9393;DHT22;4736;52.508;13.422;2022-11-04T06:34:03;9.30;1.00
9393;DHT22;4736;52.508;13.422;2022-11-04T06:37:06;9.40;1.00
9393;DHT22;4736;52.508;13.422;2022-11-04T06:40:11;9.40;1.00
9393;DHT22;4736;52.508;13.422;2022-11-04T06:43:17;9.40;1.00
9393;DHT22;4736;52.508;13.422;2022-11-04T06:46:25;9.50;1.00
9393;DHT22;4736;52.508;13.422;2022-11-04T06:49:28;9.50;1.00
9393;DHT22;4736;52.508;13.422;2022-11-04T06:52:31;9.60;1.00
9393;DHT22;4736;52.508;13.422;2022-11-04T06:55:43;9.60;1.00
9393;DHT22;4736;52.508;13.422;2022-11-04T06:58:47;9.60;1.00
9393;DHT22;4736;52.508;13.422;2022-11-04T07:01:50;9.60;1.00
9393;DHT22;4736;52.508;13.422;2022-11-04T07:04:54;9.70;1.00
9393;DHT22;4736;52.508;13.422;2022-11-04T07:08:09;9.70;1.00
9393;DHT22;4736;52.508;13.422;2022-11-04T07:11:13;9.70;1.00
9393;DHT22;4736;52.508;13.422;2022-11-04T07:14:16;9.80;1.00
9393;DHT22;4736;52.508;13.422;2022-11-04T07:17:19;9.90;1.00
9393;DHT22;4736;52.508;13.422;2022-11-04T07:20:22;9.90;1.00
9393;DHT22;4736;52.508;13.422;2022-11-04T07:23:25;10.00;1.00
9393;DHT22;4736;52.508;13.422;2022-11-04T07:26:30;10.00;1.00
9393;DHT22;4736;52.508;13.422;2022-11-04T07:29:33;10.00;1.00
9393;DHT22;4736;52.508;13.422;2022-11-04T07:32:35;10.00;1.00
9393;DHT22;4736;52.508;13.422;2022-11-04T07:35:38;10.00;1.00
9393;DHT22;4736;52.508;13.422;2022-11-04T07:38:44;10.10;1.00
9393;DHT22;4736;52.508;13.422;2022-11-04T07:41:49;10.10;1.00
9393;DHT22;4736;52.508;13.422;2022-11-04T07:45:03;10.20;1.00
9393;DHT22;4736;52.508;13.422;2022-11-04T07:48:06;10.20;1.00
9393;DHT22;4736;52.508;13.422;2022-11-04T07:51:11;10.30;1.00
9393;DHT22;4736;52.508;13.422;2022-11-04T07:54:15;10.40;1.00
9393;DHT22;4736;52.508;13.422;2022-11-04T07:57:19;10.50;1.00
9393;DHT22;4736;52.508;13.422;2022-11-04T08:00:22;10.50;1.00
9393;DHT22;4736;52.508;13.422;2022-11-04T08:03:26;10.70;1.00
9393;DHT22;4736;52.508;13.422;2022-11-04T08:06:29;10.80;1.00
9393;DHT22;4736;52.508;13.422;2022-11-04T08:09:32;10.90;1.00
9393;DHT22;4736;52.508;13.422;2022-11-04T08:12:39;11.00;1.00
9393;DHT22;4736;52.508;13.422;2022-11-04T08:15:41;11.10;1.00
9393;DHT22;4736;52.508;13.422;2022-11-04T08:18:45;11.10;1.00
9393;DHT22;4736;52.508;13.422;2022-11-04T08:21:49;11.10;1.00
9393;DHT22;4736;52.508;13.422;2022-11-04T08:24:52;11.20;1.00
9393;DHT22;4736;52.508;13.422;2022-11-04T08:27:56;11.20;1.00
9393;DHT22;4736;52.508;13.422;2022-11-04T08:31:04;11.20;1.00
9393;DHT22;4736;52.508;13.422;2022-11-04T08:34:08;11.30;1.00
9393;DHT22;4736;52.508;13.422;2022-11-04T08:37:13;11.30;1.00
9393;DHT22;4736;52.508;13.422;2022-11-04T08:40:16;11.30;1.00
9393;DHT22;4736;52.508;13.422;2022-11-04T08:43:20;11.30;1.00
9393;DHT22;4736;52.508;13.422;2022-11-04T08:46:23;11.30;1.00
9393;DHT22;4736;52.508;13.422;2022-11-04T08:49:26;11.30;1.00
9393;DHT22;4736;52.508;13.422;2022-11-04T08:52:29;11.40;1.00
9393;DHT22;4736;52.508;13.422;2022-11-04T08:55:32;11.40;1.00
9393;DHT22;4736;52.508;13.422;2022-11-04T08:58:36;11.50;1.00
9393;DHT22;4736;52.508;13.422;2022-11-04T09:01:39;11.50;1.00
9393;DHT22;4736;52.508;13.422;2022-11-04T09:04:42;11.60;1.00
9393;DHT22;4736;52.508;13.422;2022-11-04T09:07:45;11.60;1.00
9393;DHT22;4736;52.508;13.422;2022-11-04T09:10:48;11.60;1.00
9393;DHT22;4736;52.508;13.422;2022-11-04T09:13:52;11.60;1.00
9393;DHT22;4736;52.508;13.422;2022-11-04T09:16:55;11.70;1.00
9393;DHT22;4736;52.508;13.422;2022-11-04T09:19:58;11.70;1.00
9393;DHT22;4736;52.508;13.422;2022-11-04T09:23:00;11.70;1.00
9393;DHT22;4736;52.508;13.422;2022-11-04T09:26:13;11.80;1.00
9393;DHT22;4736;52.508;13.422;2022-11-04T09:29:18;11.80;1.00
9393;DHT22;4736;52.508;13.422;2022-11-04T09:32:21;11.80;1.00
9393;DHT22;4736;52.508;13.422;2022-11-04T09:35:24;11.80;1.00
9393;DHT22;4736;52.508;13.422;2022-11-04T09:38:28;11.90;1.00
9393;DHT22;4736;52.508;13.422;2022-11-04T09:41:46;11.80;1.00
9393;DHT22;4736;52.508;13.422;2022-11-04T09:44:56;11.90;1.00
9393;DHT22;4736;52.508;13.422;2022-11-04T09:48:28;12.00;1.00
9393;DHT22;4736;52.508;13.422;2022-11-04T09:51:33;12.00;1.00
9393;DHT22;4736;52.508;13.422;2022-11-04T09:55:00;12.10;1.00
9393;DHT22;4736;52.508;13.422;2022-11-04T09:58:08;12.10;1.00
9393;DHT22;4736;52.508;13.422;2022-11-04T10:01:27;12.10;1.00
9393;DHT22;4736;52.508;13.422;2022-11-04T10:04:43;12.10;1.00
9393;DHT22;4736;52.508;13.422;2022-11-04T10:11:22;12.10;1.00
9393;DHT22;4736;52.508;13.422;2022-11-04T10:14:44;12.10;1.00
9393;DHT22;4736;52.508;13.422;2022-11-04T10:18:04;12.00;1.00
9393;DHT22;4736;52.508;13.422;2022-11-04T10:21:17;12.00;1.00
9393;DHT22;4736;52.508;13.422;2022-11-04T10:24:32;12.00;1.00
9393;DHT22;4736;52.508;13.422;2022-11-04T10:27:39;12.00;1.00
9393;DHT22;4736;52.508;13.422;2022-11-04T10:30:45;12.00;1.00
9393;DHT22;4736;52.508;13.422;2022-11-04T10:33:54;12.00;1.00
9393;DHT22;4736;52.508;13.422;2022-11-04T10:36:57;12.00;1.00
9393;DHT22;4736;52.508;13.422;2022-11-04T10:40:19;12.10;1.00
9393;DHT22;4736;52.508;13.422;2022-11-04T10:43:29;12.10;1.00
9393;DHT22;4736;52.508;13.422;2022-11-04T10:46:42;12.10;1.00
9393;DHT22;4736;52.508;13.422;2022-11-04T10:50:03;12.00;1.00
9393;DHT22;4736;52.508;13.422;2022-11-04T10:53:31;12.10;1.00
9393;DHT22;4736;52.508;13.422;2022-11-04T10:56:39;12.10;1.00
9393;DHT22;4736;52.508;13.422;2022-11-04T10:59:49;12.10;1.00
9393;DHT22;4736;52.508;13.422;2022-11-04T11:02:53;12.10;1.00
9393;DHT22;4736;52.508;13.422;2022-11-04T11:06:20;12.00;1.00
9393;DHT22;4736;52.508;13.422;2022-11-04T11:09:26;12.10;1.00
9393;DHT22;4736;52.508;13.422;2022-11-04T11:12:30;12.00;1.00
9393;DHT22;4736;52.508;13.422;2022-11-04T11:16:08;12.00;1.00
9393;DHT22;4736;52.508;13.422;2022-11-04T11:19:15;12.00;1.00
9393;DHT22;4736;52.508;13.422;2022-11-04T11:22:37;12.00;1.00
9393;DHT22;4736;52.508;13.422;2022-11-04T11:25:42;12.00;1.00
9393;DHT22;4736;52.508;13.422;2022-11-04T11:28:52;12.00;1.00
9393;DHT22;4736;52.508;13.422;2022-11-04T11:32:00;12.00;1.00
9393;DHT22;4736;52.508;13.422;2022-11-04T11:35:03;11.90;1.00
9393;DHT22;4736;52.508;13.422;2022-11-04T11:38:17;11.90;1.00
9393;DHT22;4736;52.508;13.422;2022-11-04T11:41:23;11.80;1.00
9393;DHT22;4736;52.508;13.422;2022-11-04T11:44:34;11.80;1.00
9393;DHT22;4736;52.508;13.422;2022-11-04T11:47:42;11.70;1.00
9393;DHT22;4736;52.508;13.422;2022-11-04T11:50:54;11.70;1.00
9393;DHT22;4736;52.508;13.422;2022-11-04T11:54:15;11.70;1.00
9393;DHT22;4736;52.508;13.422;2022-11-04T11:57:32;11.60;1.00
9393;DHT22;4736;52.508;13.422;2022-11-04T12:00:41;11.60;1.00
9393;DHT22;4736;52.508;13.422;2022-11-04T12:03:51;11.60;1.00
9393;DHT22;4736;52.508;13.422;2022-11-04T12:07:22;11.60;1.00
9393;DHT22;4736;52.508;13.422;2022-11-04T12:10:56;11.60;1.00
9393;DHT22;4736;52.508;13.422;2022-11-04T12:14:07;11.60;1.00
9393;DHT22;4736;52.508;13.422;2022-11-04T12:17:21;11.60;1.00
9393;DHT22;4736;52.508;13.422;2022-11-04T12:20:37;11.60;1.00
9393;DHT22;4736;52.508;13.422;2022-11-04T12:23:49;11.60;1.00
9393;DHT22;4736;52.508;13.422;2022-11-04T12:27:02;11.50;1.00
9393;DHT22;4736;52.508;13.422;2022-11-04T12:30:14;11.60;1.00
9393;DHT22;4736;52.508;13.422;2022-11-04T12:33:33;11.50;1.00
9393;DHT22;4736;52.508;13.422;2022-11-04T12:36:56;11.60;1.00
9393;DHT22;4736;52.508;13.422;2022-11-04T12:40:13;11.50;1.00
9393;DHT22;4736;52.508;13.422;2022-11-04T12:43:24;11.50;1.00
9393;DHT22;4736;52.508;13.422;2022-11-04T12:46:35;11.50;1.00
9393;DHT22;4736;52.508;13.422;2022-11-04T12:57:12;11.50;1.00
9393;DHT22;4736;52.508;13.422;2022-11-04T13:00:19;11.50;1.00
9393;DHT22;4736;52.508;13.422;2022-11-04T13:03:30;11.50;1.00
9393;DHT22;4736;52.508;13.422;2022-11-04T13:06:37;11.50;1.00
9393;DHT22;4736;52.508;13.422;2022-11-04T13:09:45;11.40;1.00
9393;DHT22;4736;52.508;13.422;2022-11-04T13:12:49;11.40;1.00
9393;DHT22;4736;52.508;13.422;2022-11-04T13:16:03;11.40;1.00
9393;DHT22;4736;52.508;13.422;2022-11-04T13:19:15;11.40;1.00
9393;DHT22;4736;52.508;13.422;2022-11-04T13:22:25;11.40;1.00
9393;DHT22;4736;52.508;13.422;2022-11-04T13:25:32;11.40;1.00
9393;DHT22;4736;52.508;13.422;2022-11-04T13:28:36;11.40;1.00
9393;DHT22;4736;52.508;13.422;2022-11-04T13:32:02;11.40;1.00
9393;DHT22;4736;52.508;13.422;2022-11-04T13:35:14;11.40;1.00
9393;DHT22;4736;52.508;13.422;2022-11-04T13:38:23;11.30;1.00
9393;DHT22;4736;52.508;13.422;2022-11-04T13:41:38;11.30;1.00
9393;DHT22;4736;52.508;13.422;2022-11-04T13:44:43;11.40;1.00
9393;DHT22;4736;52.508;13.422;2022-11-04T13:47:50;11.30;1.00
9393;DHT22;4736;52.508;13.422;2022-11-04T13:50:57;11.30;1.00
9393;DHT22;4736;52.508;13.422;2022-11-04T13:54:01;11.20;1.00
9393;DHT22;4736;52.508;13.422;2022-11-04T13:57:07;11.20;1.00
9393;DHT22;4736;52.508;13.422;2022-11-04T14:00:22;11.20;1.00
9393;DHT22;4736;52.508;13.422;2022-11-04T14:03:50;11.20;1.00
9393;DHT22;4736;52.508;13.422;2022-11-04T14:06:57;11.30;1.00
9393;DHT22;4736;52.508;13.422;2022-11-04T14:10:00;11.30;1.00
9393;DHT22;4736;52.508;13.422;2022-11-04T14:13:42;11.30;1.00
9393;DHT22;4736;52.508;13.422;2022-11-04T14:16:45;11.30;1.00
9393;DHT22;4736;52.508;13.422;2022-11-04T14:19:56;11.30;1.00
9393;DHT22;4736;52.508;13.422;2022-11-04T14:23:01;11.40;1.00
9393;DHT22;4736;52.508;13.422;2022-11-04T14:26:06;11.40;1.00
9393;DHT22;4736;52.508;13.422;2022-11-04T14:29:21;11.40;1.00
9393;DHT22;4736;52.508;13.422;2022-11-04T14:32:29;11.40;1.00
9393;DHT22;4736;52.508;13.422;2022-11-04T14:35:34;11.50;1.00
9393;DHT22;4736;52.508;13.422;2022-11-04T14:38:37;11.50;1.00
9393;DHT22;4736;52.508;13.422;2022-11-04T14:41:53;11.50;1.00
9393;DHT22;4736;52.508;13.422;2022-11-04T14:44:57;11.50;1.00
9393;DHT22;4736;52.508;13.422;2022-11-04T14:48:10;11.50;1.00
9393;DHT22;4736;52.508;13.422;2022-11-04T14:51:24;11.40;1.00
9393;DHT22;4736;52.508;13.422;2022-11-04T14:54:32;11.40;1.00
9393;DHT22;4736;52.508;13.422;2022-11-04T14:57:36;11.30;1.00
9393;DHT22;4736;52.508;13.422;2022-11-04T15:00:52;11.30;1.00
9393;DHT22;4736;52.508;13.422;2022-11-04T15:04:04;11.30;1.00
9393;DHT22;4736;52.508;13.422;2022-11-04T15:07:31;11.20;1.00
9393;DHT22;4736;52.508;13.422;2022-11-04T15:10:35;11.20;1.00
9393;DHT22;4736;52.508;13.422;2022-11-04T15:13:44;11.20;1.00
9393;DHT22;4736;52.508;13.422;2022-11-04T15:16:49;11.20;1.00
9393;DHT22;4736;52.508;13.422;2022-11-04T15:19:56;11.10;1.00
9393;DHT22;4736;52.508;13.422;2022-11-04T15:23:03;11.10;1.00
9393;DHT22;4736;52.508;13.422;2022-11-04T15:26:20;11.10;1.00
9393;DHT22;4736;52.508;13.422;2022-11-04T15:29:31;11.10;1.00
9393;DHT22;4736;52.508;13.422;2022-11-04T15:32:56;11.00;1.00
9393;DHT22;4736;52.508;13.422;2022-11-04T15:36:00;11.00;1.00
9393;DHT22;4736;52.508;13.422;2022-11-04T15:39:12;11.00;1.00
9393;DHT22;4736;52.508;13.422;2022-11-04T15:42:18;11.00;1.00
9393;DHT22;4736;52.508;13.422;2022-11-04T15:45:52;11.00;1.00
9393;DHT22;4736;52.508;13.422;2022-11-04T15:49:02;11.00;1.00
9393;DHT22;4736;52.508;13.422;2022-11-04T15:52:10;10.90;1.00
9393;DHT22;4736;52.508;13.422;2022-11-04T15:55:20;10.90;1.00
9393;DHT22;4736;52.508;13.422;2022-11-04T15:58:25;10.90;1.00
9393;DHT22;4736;52.508;13.422;2022-11-04T16:01:29;10.90;1.00
9393;DHT22;4736;52.508;13.422;2022-11-04T16:04:33;10.90;1.00
9393;DHT22;4736;52.508;13.422;2022-11-04T16:07:37;10.90;1.00
9393;DHT22;4736;52.508;13.422;2022-11-04T16:10:42;10.90;1.00
9393;DHT22;4736;52.508;13.422;2022-11-04T16:13:46;10.80;1.00
9393;DHT22;4736;52.508;13.422;2022-11-04T16:16:50;10.80;1.00
9393;DHT22;4736;52.508;13.422;2022-11-04T16:19:55;10.80;1.00
9393;DHT22;4736;52.508;13.422;2022-11-04T16:23:01;10.80;1.00
9393;DHT22;4736;52.508;13.422;2022-11-04T16:26:06;10.80;1.00
9393;DHT22;4736;52.508;13.422;2022-11-04T16:29:14;10.80;1.00
9393;DHT22;4736;52.508;13.422;2022-11-04T16:32:24;10.80;1.00
9393;DHT22;4736;52.508;13.422;2022-11-04T16:35:27;10.80;1.00
9393;DHT22;4736;52.508;13.422;2022-11-04T16:38:30;10.80;1.00
9393;DHT22;4736;52.508;13.422;2022-11-04T16:41:36;10.80;1.00
9393;DHT22;4736;52.508;13.422;2022-11-04T16:44:39;10.80;1.00
9393;DHT22;4736;52.508;13.422;2022-11-04T16:47:42;10.80;1.00
9393;DHT22;4736;52.508;13.422;2022-11-04T16:50:46;10.80;1.00
9393;DHT22;4736;52.508;13.422;2022-11-04T16:53:53;10.80;1.00
9393;DHT22;4736;52.508;13.422;2022-11-04T16:57:00;10.80;1.00
9393;DHT22;4736;52.508;13.422;2022-11-04T17:00:10;10.70;1.00
9393;DHT22;4736;52.508;13.422;2022-11-04T17:03:19;10.80;1.00
9393;DHT22;4736;52.508;13.422;2022-11-04T17:06:23;10.80;1.00
9393;DHT22;4736;52.508;13.422;2022-11-04T17:09:32;10.80;1.00
9393;DHT22;4736;52.508;13.422;2022-11-04T17:12:37;10.80;1.00
9393;DHT22;4736;52.508;13.422;2022-11-04T17:15:47;10.80;1.00
9393;DHT22;4736;52.508;13.422;2022-11-04T17:18:50;10.80;1.00
9393;DHT22;4736;52.508;13.422;2022-11-04T17:21:53;10.80;1.00
9393;DHT22;4736;52.508;13.422;2022-11-04T17:24:56;10.80;1.00
9393;DHT22;4736;52.508;13.422;2022-11-04T17:28:00;10.80;1.00
9393;DHT22;4736;52.508;13.422;2022-11-04T17:31:03;10.80;1.00
9393;DHT22;4736;52.508;13.422;2022-11-04T17:34:07;10.80;1.00
9393;DHT22;4736;52.508;13.422;2022-11-04T17:37:11;10.80;1.00
9393;DHT22;4736;52.508;13.422;2022-11-04T17:40:16;10.80;1.00
9393;DHT22;4736;52.508;13.422;2022-11-04T17:43:20;10.70;1.00
9393;DHT22;4736;52.508;13.422;2022-11-04T17:46:41;10.70;1.00
9393;DHT22;4736;52.508;13.422;2022-11-04T17:49:48;10.70;1.00
9393;DHT22;4736;52.508;13.422;2022-11-04T17:52:50;10.70;1.00
9393;DHT22;4736;52.508;13.422;2022-11-04T17:55:53;10.70;1.00
9393;DHT22;4736;52.508;13.422;2022-11-04T17:58:59;10.70;1.00
9393;DHT22;4736;52.508;13.422;2022-11-04T18:02:02;10.70;1.00
9393;DHT22;4736;52.508;13.422;2022-11-04T18:05:06;10.70;1.00
9393;DHT22;4736;52.508;13.422;2022-11-04T18:08:09;10.70;1.00
9393;DHT22;4736;52.508;13.422;2022-11-04T18:11:13;10.70;1.00
9393;DHT22;4736;52.508;13.422;2022-11-04T18:14:39;10.70;1.00
9393;DHT22;4736;52.508;13.422;2022-11-04T18:17:43;10.70;1.00
9393;DHT22;4736;52.508;13.422;2022-11-04T18:20:46;10.70;1.00
9393;DHT22;4736;52.508;13.422;2022-11-04T18:23:49;10.70;1.00
9393;DHT22;4736;52.508;13.422;2022-11-04T18:26:52;10.60;1.00
9393;DHT22;4736;52.508;13.422;2022-11-04T18:29:56;10.60;1.00
9393;DHT22;4736;52.508;13.422;2022-11-04T18:32:59;10.60;1.00
9393;DHT22;4736;52.508;13.422;2022-11-04T18:36:03;10.60;1.00
9393;DHT22;4736;52.508;13.422;2022-11-04T18:39:07;10.60;1.00
9393;DHT22;4736;52.508;13.422;2022-11-04T18:42:11;10.60;1.00
9393;DHT22;4736;52.508;13.422;2022-11-04T18:45:18;10.60;1.00
9393;DHT22;4736;52.508;13.422;2022-11-04T18:48:20;10.60;1.00
9393;DHT22;4736;52.508;13.422;2022-11-04T18:51:24;10.60;1.00
9393;DHT22;4736;52.508;13.422;2022-11-04T18:54:31;10.60;1.00
9393;DHT22;4736;52.508;13.422;2022-11-04T18:57:34;10.60;1.00
9393;DHT22;4736;52.508;13.422;2022-11-04T19:00:38;10.50;1.00
9393;DHT22;4736;52.508;13.422;2022-11-04T19:03:41;10.50;1.00
9393;DHT22;4736;52.508;13.422;2022-11-04T19:06:48;10.50;1.00
9393;DHT22;4736;52.508;13.422;2022-11-04T19:09:51;10.50;1.00
9393;DHT22;4736;52.508;13.422;2022-11-04T19:12:55;10.50;1.00
9393;DHT22;4736;52.508;13.422;2022-11-04T19:16:17;10.40;1.00
9393;DHT22;4736;52.508;13.422;2022-11-04T19:19:20;10.40;1.00
9393;DHT22;4736;52.508;13.422;2022-11-04T19:22:22;10.40;1.00
9393;DHT22;4736;52.508;13.422;2022-11-04T19:25:26;10.40;1.00
9393;DHT22;4736;52.508;13.422;2022-11-04T19:28:28;10.40;1.00
9393;DHT22;4736;52.508;13.422;2022-11-04T19:31:49;10.40;1.00
9393;DHT22;4736;52.508;13.422;2022-11-04T19:34:52;10.40;1.00
9393;DHT22;4736;52.508;13.422;2022-11-04T19:37:54;10.40;1.00
9393;DHT22;4736;52.508;13.422;2022-11-04T19:41:01;10.40;1.00
9393;DHT22;4736;52.508;13.422;2022-11-04T19:44:06;10.40;1.00
9393;DHT22;4736;52.508;13.422;2022-11-04T19:47:10;10.40;1.00
9393;DHT22;4736;52.508;13.422;2022-11-04T19:50:14;10.40;1.00
9393;DHT22;4736;52.508;13.422;2022-11-04T19:53:17;10.40;1.00
9393;DHT22;4736;52.508;13.422;2022-11-04T19:56:21;10.40;1.00
9393;DHT22;4736;52.508;13.422;2022-11-04T19:59:24;10.40;1.00
9393;DHT22;4736;52.508;13.422;2022-11-04T20:02:29;10.40;1.00
9393;DHT22;4736;52.508;13.422;2022-11-04T20:05:39;10.40;1.00
9393;DHT22;4736;52.508;13.422;2022-11-04T20:08:44;10.40;1.00
9393;DHT22;4736;52.508;13.422;2022-11-04T20:11:49;10.40;1.00
9393;DHT22;4736;52.508;13.422;2022-11-04T20:15:10;10.40;1.00
9393;DHT22;4736;52.508;13.422;2022-11-04T20:18:14;10.40;1.00
9393;DHT22;4736;52.508;13.422;2022-11-04T20:21:19;10.40;1.00
9393;DHT22;4736;52.508;13.422;2022-11-04T20:24:22;10.40;1.00
9393;DHT22;4736;52.508;13.422;2022-11-04T20:27:25;10.40;1.00
9393;DHT22;4736;52.508;13.422;2022-11-04T20:30:28;10.40;1.00
9393;DHT22;4736;52.508;13.422;2022-11-04T20:33:35;10.40;1.00
9393;DHT22;4736;52.508;13.422;2022-11-04T20:36:38;10.40;1.00
9393;DHT22;4736;52.508;13.422;2022-11-04T20:39:44;10.40;1.00
9393;DHT22;4736;52.508;13.422;2022-11-04T20:42:47;10.40;1.00
9393;DHT22;4736;52.508;13.422;2022-11-04T20:45:49;10.40;1.00
9393;DHT22;4736;52.508;13.422;2022-11-04T20:48:55;10.40;1.00